sensor_id;sensor_type;location;lat;lon;timestamp;P1;durP1;ratioP1;P2;durP2;ratioP2
32705;SDS011;19094;50.972;3.538;2023-02-12T00:02:05;39.15;;;18.90;;
32705;SDS011;19094;50.972;3.538;2023-02-12T00:04:32;32.80;;;18.75;;
32705;SDS011;19094;50.972;3.538;2023-02-12T00:06:58;36.83;;;19.13;;
32705;SDS011;19094;50.972;3.538;2023-02-12T00:09:23;37.47;;;18.67;;
32705;SDS011;19094;50.972;3.538;2023-02-12T00:11:49;40.20;;;19.27;;
32705;SDS011;19094;50.972;3.538;2023-02-12T00:14:15;37.53;;;19.63;;
32705;SDS011;19094;50.972;3.538;2023-02-12T00:16:41;37.95;;;18.42;;
32705;SDS011;19094;50.972;3.538;2023-02-12T00:19:07;36.50;;;19.20;;
32705;SDS011;19094;50.972;3.538;2023-02-12T00:21:33;34.88;;;17.45;;
32705;SDS011;19094;50.972;3.538;2023-02-12T00:23:59;38.80;;;19.02;;
32705;SDS011;19094;50.972;3.538;2023-02-12T00:26:26;38.05;;;19.27;;
32705;SDS011;19094;50.972;3.538;2023-02-12T00:28:52;44.13;;;20.77;;
32705;SDS011;19094;50.972;3.538;2023-02-12T00:31:22;38.40;;;20.92;;
32705;SDS011;19094;50.972;3.538;2023-02-12T00:33:50;38.13;;;18.58;;
32705;SDS011;19094;50.972;3.538;2023-02-12T00:36:17;42.10;;;19.85;;
32705;SDS011;19094;50.972;3.538;2023-02-12T00:38:45;40.50;;;19.23;;
32705;SDS011;19094;50.972;3.538;2023-02-12T00:41:11;36.08;;;19.63;;
32705;SDS011;19094;50.972;3.538;2023-02-12T00:43:37;38.45;;;18.33;;
32705;SDS011;19094;50.972;3.538;2023-02-12T00:46:03;37.20;;;18.85;;
32705;SDS011;19094;50.972;3.538;2023-02-12T00:48:31;35.22;;;17.65;;
32705;SDS011;19094;50.972;3.538;2023-02-12T00:50:57;39.33;;;19.38;;
32705;SDS011;19094;50.972;3.538;2023-02-12T00:53:23;42.03;;;18.60;;
32705;SDS011;19094;50.972;3.538;2023-02-12T00:55:49;43.03;;;19.10;;
32705;SDS011;19094;50.972;3.538;2023-02-12T00:58:14;34.83;;;18.77;;
32705;SDS011;19094;50.972;3.538;2023-02-12T01:00:41;34.42;;;18.50;;
32705;SDS011;19094;50.972;3.538;2023-02-12T01:03:07;38.35;;;18.35;;
32705;SDS011;19094;50.972;3.538;2023-02-12T01:05:33;35.00;;;18.08;;
32705;SDS011;19094;50.972;3.538;2023-02-12T01:07:59;35.78;;;17.77;;
32705;SDS011;19094;50.972;3.538;2023-02-12T01:10:25;35.28;;;17.83;;
32705;SDS011;19094;50.972;3.538;2023-02-12T01:12:51;35.80;;;17.27;;
32705;SDS011;19094;50.972;3.538;2023-02-12T01:15:17;37.03;;;17.52;;
32705;SDS011;19094;50.972;3.538;2023-02-12T01:17:44;37.53;;;18.13;;
32705;SDS011;19094;50.972;3.538;2023-02-12T01:20:11;34.53;;;17.85;;
32705;SDS011;19094;50.972;3.538;2023-02-12T01:22:41;35.72;;;17.05;;
32705;SDS011;19094;50.972;3.538;2023-02-12T01:25:07;34.08;;;16.08;;
32705;SDS011;19094;50.972;3.538;2023-02-12T01:27:34;31.13;;;16.60;;
32705;SDS011;19094;50.972;3.538;2023-02-12T01:29:59;31.45;;;15.48;;
32705;SDS011;19094;50.972;3.538;2023-02-12T01:32:25;32.30;;;16.10;;
32705;SDS011;19094;50.972;3.538;2023-02-12T01:34:51;33.35;;;16.33;;
32705;SDS011;19094;50.972;3.538;2023-02-12T01:37:17;32.25;;;16.42;;
32705;SDS011;19094;50.972;3.538;2023-02-12T01:39:43;33.60;;;16.95;;
32705;SDS011;19094;50.972;3.538;2023-02-12T01:42:10;30.90;;;16.55;;
32705;SDS011;19094;50.972;3.538;2023-02-12T01:44:44;34.45;;;17.85;;
32705;SDS011;19094;50.972;3.538;2023-02-12T01:47:29;35.75;;;17.95;;
32705;SDS011;19094;50.972;3.538;2023-02-12T01:49:55;35.85;;;17.75;;
32705;SDS011;19094;50.972;3.538;2023-02-12T01:52:39;34.78;;;16.70;;
32705;SDS011;19094;50.972;3.538;2023-02-12T01:55:07;35.95;;;17.13;;
32705;SDS011;19094;50.972;3.538;2023-02-12T01:57:35;38.13;;;17.67;;
32705;SDS011;19094;50.972;3.538;2023-02-12T02:00:06;34.83;;;17.85;;
32705;SDS011;19094;50.972;3.538;2023-02-12T02:02:44;36.15;;;17.67;;
32705;SDS011;19094;50.972;3.538;2023-02-12T02:05:14;34.17;;;18.67;;
32705;SDS011;19094;50.972;3.538;2023-02-12T02:07:47;35.33;;;17.83;;
32705;SDS011;19094;50.972;3.538;2023-02-12T02:10:13;37.20;;;18.08;;
32705;SDS011;19094;50.972;3.538;2023-02-12T02:12:39;36.28;;;18.38;;
32705;SDS011;19094;50.972;3.538;2023-02-12T02:15:24;36.10;;;18.13;;
32705;SDS011;19094;50.972;3.538;2023-02-12T02:18:04;35.90;;;17.67;;
32705;SDS011;19094;50.972;3.538;2023-02-12T02:31:43;34.28;;;17.65;;
32705;SDS011;19094;50.972;3.538;2023-02-12T02:34:26;34.70;;;17.30;;
32705;SDS011;19094;50.972;3.538;2023-02-12T02:37:06;36.13;;;18.27;;
32705;SDS011;19094;50.972;3.538;2023-02-12T02:40:08;39.47;;;19.15;;
32705;SDS011;19094;50.972;3.538;2023-02-12T02:42:40;34.15;;;17.27;;
32705;SDS011;19094;50.972;3.538;2023-02-12T02:45:19;35.22;;;17.85;;
32705;SDS011;19094;50.972;3.538;2023-02-12T02:48:19;33.72;;;17.30;;
32705;SDS011;19094;50.972;3.538;2023-02-12T02:50:56;32.78;;;17.42;;
32705;SDS011;19094;50.972;3.538;2023-02-12T02:53:29;38.78;;;19.27;;
32705;SDS011;19094;50.972;3.538;2023-02-12T02:55:58;32.67;;;16.25;;
32705;SDS011;19094;50.972;3.538;2023-02-12T02:58:27;35.83;;;18.30;;
32705;SDS011;19094;50.972;3.538;2023-02-12T03:01:05;39.50;;;17.95;;
32705;SDS011;19094;50.972;3.538;2023-02-12T03:03:40;35.10;;;17.58;;
32705;SDS011;19094;50.972;3.538;2023-02-12T03:06:25;31.27;;;17.15;;
32705;SDS011;19094;50.972;3.538;2023-02-12T03:08:55;36.75;;;17.92;;
32705;SDS011;19094;50.972;3.538;2023-02-12T03:11:28;34.05;;;17.60;;
32705;SDS011;19094;50.972;3.538;2023-02-12T03:14:04;31.67;;;17.25;;
32705;SDS011;19094;50.972;3.538;2023-02-12T03:17:09;34.83;;;17.63;;
32705;SDS011;19094;50.972;3.538;2023-02-12T03:19:58;33.22;;;17.63;;
32705;SDS011;19094;50.972;3.538;2023-02-12T03:22:38;35.13;;;18.08;;
32705;SDS011;19094;50.972;3.538;2023-02-12T03:25:14;31.50;;;16.90;;
32705;SDS011;19094;50.972;3.538;2023-02-12T03:27:46;31.83;;;16.98;;
32705;SDS011;19094;50.972;3.538;2023-02-12T03:30:28;33.65;;;16.58;;
32705;SDS011;19094;50.972;3.538;2023-02-12T03:33:15;33.22;;;16.73;;
32705;SDS011;19094;50.972;3.538;2023-02-12T03:35:54;34.28;;;17.35;;
32705;SDS011;19094;50.972;3.538;2023-02-12T03:43:56;37.72;;;17.75;;
32705;SDS011;19094;50.972;3.538;2023-02-12T03:46:44;32.47;;;16.35;;
32705;SDS011;19094;50.972;3.538;2023-02-12T03:49:22;32.85;;;17.52;;
32705;SDS011;19094;50.972;3.538;2023-02-12T03:51:52;36.65;;;17.58;;
32705;SDS011;19094;50.972;3.538;2023-02-12T03:54:19;34.53;;;18.08;;
32705;SDS011;19094;50.972;3.538;2023-02-12T03:59:16;35.83;;;17.70;;
32705;SDS011;19094;50.972;3.538;2023-02-12T04:01:43;31.17;;;16.52;;
32705;SDS011;19094;50.972;3.538;2023-02-12T04:04:10;29.77;;;17.33;;
32705;SDS011;19094;50.972;3.538;2023-02-12T04:06:36;34.28;;;18.02;;
32705;SDS011;19094;50.972;3.538;2023-02-12T04:09:06;29.98;;;17.05;;
32705;SDS011;19094;50.972;3.538;2023-02-12T04:11:45;34.90;;;18.48;;
32705;SDS011;19094;50.972;3.538;2023-02-12T04:21:04;36.53;;;18.33;;
32705;SDS011;19094;50.972;3.538;2023-02-12T04:26:17;38.38;;;18.75;;
32705;SDS011;19094;50.972;3.538;2023-02-12T04:28:51;34.80;;;19.67;;
32705;SDS011;19094;50.972;3.538;2023-02-12T04:31:40;35.60;;;19.20;;
32705;SDS011;19094;50.972;3.538;2023-02-12T04:37:05;37.50;;;18.98;;
32705;SDS011;19094;50.972;3.538;2023-02-12T04:39:35;35.42;;;19.38;;
32705;SDS011;19094;50.972;3.538;2023-02-12T04:42:04;35.20;;;19.88;;
32705;SDS011;19094;50.972;3.538;2023-02-12T04:44:31;37.88;;;19.45;;
32705;SDS011;19094;50.972;3.538;2023-02-12T04:46:58;37.92;;;20.00;;
32705;SDS011;19094;50.972;3.538;2023-02-12T04:49:24;37.55;;;19.08;;
32705;SDS011;19094;50.972;3.538;2023-02-12T04:51:51;37.33;;;18.90;;
32705;SDS011;19094;50.972;3.538;2023-02-12T04:54:18;37.28;;;18.98;;
32705;SDS011;19094;50.972;3.538;2023-02-12T04:56:44;34.65;;;18.77;;
32705;SDS011;19094;50.972;3.538;2023-02-12T04:59:10;37.38;;;19.17;;
32705;SDS011;19094;50.972;3.538;2023-02-12T05:01:37;32.60;;;18.27;;
32705;SDS011;19094;50.972;3.538;2023-02-12T05:04:04;34.53;;;19.00;;
32705;SDS011;19094;50.972;3.538;2023-02-12T05:06:30;37.63;;;19.45;;
32705;SDS011;19094;50.972;3.538;2023-02-12T05:08:59;34.53;;;18.65;;
32705;SDS011;19094;50.972;3.538;2023-02-12T05:11:25;34.97;;;18.73;;
32705;SDS011;19094;50.972;3.538;2023-02-12T05:13:51;37.63;;;18.23;;
32705;SDS011;19094;50.972;3.538;2023-02-12T05:16:17;34.33;;;17.85;;
32705;SDS011;19094;50.972;3.538;2023-02-12T05:18:43;36.83;;;19.27;;
32705;SDS011;19094;50.972;3.538;2023-02-12T05:21:09;36.33;;;19.30;;
32705;SDS011;19094;50.972;3.538;2023-02-12T05:23:36;34.58;;;18.63;;
32705;SDS011;19094;50.972;3.538;2023-02-12T05:26:04;38.38;;;19.25;;
32705;SDS011;19094;50.972;3.538;2023-02-12T05:28:36;37.33;;;18.65;;
32705;SDS011;19094;50.972;3.538;2023-02-12T05:31:02;37.45;;;19.17;;
32705;SDS011;19094;50.972;3.538;2023-02-12T05:33:29;36.70;;;19.10;;
32705;SDS011;19094;50.972;3.538;2023-02-12T05:35:55;33.42;;;17.17;;
32705;SDS011;19094;50.972;3.538;2023-02-12T05:38:30;37.00;;;18.75;;
32705;SDS011;19094;50.972;3.538;2023-02-12T05:41:03;36.75;;;18.40;;
32705;SDS011;19094;50.972;3.538;2023-02-12T05:43:30;35.05;;;18.52;;
32705;SDS011;19094;50.972;3.538;2023-02-12T05:46:00;37.58;;;19.65;;
32705;SDS011;19094;50.972;3.538;2023-02-12T05:48:26;38.03;;;19.58;;
32705;SDS011;19094;50.972;3.538;2023-02-12T05:50:52;36.47;;;18.42;;
32705;SDS011;19094;50.972;3.538;2023-02-12T05:53:19;36.88;;;17.42;;
32705;SDS011;19094;50.972;3.538;2023-02-12T05:55:45;33.15;;;16.50;;
32705;SDS011;19094;50.972;3.538;2023-02-12T05:58:11;29.83;;;16.05;;
32705;SDS011;19094;50.972;3.538;2023-02-12T06:00:36;31.25;;;17.23;;
32705;SDS011;19094;50.972;3.538;2023-02-12T06:03:02;33.05;;;17.35;;
32705;SDS011;19094;50.972;3.538;2023-02-12T06:05:28;38.50;;;18.98;;
32705;SDS011;19094;50.972;3.538;2023-02-12T06:07:53;38.78;;;18.25;;
32705;SDS011;19094;50.972;3.538;2023-02-12T06:10:19;35.53;;;17.10;;
32705;SDS011;19094;50.972;3.538;2023-02-12T06:12:45;33.70;;;17.77;;
32705;SDS011;19094;50.972;3.538;2023-02-12T06:15:10;33.65;;;17.63;;
32705;SDS011;19094;50.972;3.538;2023-02-12T06:17:36;33.92;;;17.80;;
32705;SDS011;19094;50.972;3.538;2023-02-12T06:20:02;33.85;;;17.33;;
32705;SDS011;19094;50.972;3.538;2023-02-12T06:22:28;33.65;;;17.13;;
32705;SDS011;19094;50.972;3.538;2023-02-12T06:24:54;35.28;;;18.90;;
32705;SDS011;19094;50.972;3.538;2023-02-12T06:27:20;37.65;;;20.85;;
32705;SDS011;19094;50.972;3.538;2023-02-12T06:29:45;36.08;;;20.15;;
32705;SDS011;19094;50.972;3.538;2023-02-12T06:32:11;38.10;;;19.95;;
32705;SDS011;19094;50.972;3.538;2023-02-12T06:34:38;40.05;;;19.88;;
32705;SDS011;19094;50.972;3.538;2023-02-12T06:37:04;41.13;;;21.48;;
32705;SDS011;19094;50.972;3.538;2023-02-12T06:39:30;40.50;;;21.63;;
32705;SDS011;19094;50.972;3.538;2023-02-12T06:41:55;43.00;;;22.20;;
32705;SDS011;19094;50.972;3.538;2023-02-12T06:44:21;44.33;;;23.20;;
32705;SDS011;19094;50.972;3.538;2023-02-12T06:46:47;42.97;;;23.35;;
32705;SDS011;19094;50.972;3.538;2023-02-12T06:49:13;47.67;;;23.95;;
32705;SDS011;19094;50.972;3.538;2023-02-12T06:51:40;46.50;;;24.77;;
32705;SDS011;19094;50.972;3.538;2023-02-12T06:54:10;47.60;;;23.77;;
32705;SDS011;19094;50.972;3.538;2023-02-12T06:56:38;56.47;;;26.10;;
32705;SDS011;19094;50.972;3.538;2023-02-12T06:59:03;47.33;;;25.35;;
32705;SDS011;19094;50.972;3.538;2023-02-12T07:01:29;48.33;;;25.75;;
32705;SDS011;19094;50.972;3.538;2023-02-12T07:03:56;48.30;;;25.52;;
32705;SDS011;19094;50.972;3.538;2023-02-12T07:06:24;52.55;;;24.92;;
32705;SDS011;19094;50.972;3.538;2023-02-12T07:08:51;51.85;;;24.55;;
32705;SDS011;19094;50.972;3.538;2023-02-12T07:11:21;55.13;;;25.80;;
32705;SDS011;19094;50.972;3.538;2023-02-12T07:13:48;50.05;;;25.00;;
32705;SDS011;19094;50.972;3.538;2023-02-12T07:16:14;51.90;;;26.48;;
32705;SDS011;19094;50.972;3.538;2023-02-12T07:18:41;57.65;;;27.67;;
32705;SDS011;19094;50.972;3.538;2023-02-12T07:21:08;56.60;;;26.85;;
32705;SDS011;19094;50.972;3.538;2023-02-12T07:23:35;53.08;;;27.25;;
32705;SDS011;19094;50.972;3.538;2023-02-12T07:26:02;54.35;;;28.73;;
32705;SDS011;19094;50.972;3.538;2023-02-12T07:28:29;55.05;;;28.08;;
32705;SDS011;19094;50.972;3.538;2023-02-12T07:30:57;53.25;;;27.02;;
32705;SDS011;19094;50.972;3.538;2023-02-12T07:33:24;50.33;;;26.63;;
32705;SDS011;19094;50.972;3.538;2023-02-12T07:35:50;52.63;;;27.33;;
32705;SDS011;19094;50.972;3.538;2023-02-12T07:38:15;49.63;;;25.92;;
32705;SDS011;19094;50.972;3.538;2023-02-12T07:40:42;53.22;;;27.42;;
32705;SDS011;19094;50.972;3.538;2023-02-12T07:43:08;50.92;;;26.25;;
32705;SDS011;19094;50.972;3.538;2023-02-12T07:45:33;45.40;;;24.63;;
32705;SDS011;19094;50.972;3.538;2023-02-12T07:47:59;47.45;;;25.73;;
32705;SDS011;19094;50.972;3.538;2023-02-12T07:50:25;46.17;;;24.10;;
32705;SDS011;19094;50.972;3.538;2023-02-12T07:52:50;43.45;;;21.80;;
32705;SDS011;19094;50.972;3.538;2023-02-12T07:55:16;44.60;;;21.30;;
32705;SDS011;19094;50.972;3.538;2023-02-12T07:57:42;41.30;;;19.77;;
32705;SDS011;19094;50.972;3.538;2023-02-12T08:00:08;50.28;;;23.23;;
32705;SDS011;19094;50.972;3.538;2023-02-12T08:02:34;64.20;;;26.25;;
32705;SDS011;19094;50.972;3.538;2023-02-12T08:05:00;55.20;;;25.85;;
32705;SDS011;19094;50.972;3.538;2023-02-12T08:07:25;58.83;;;26.67;;
32705;SDS011;19094;50.972;3.538;2023-02-12T08:09:51;57.15;;;26.58;;
32705;SDS011;19094;50.972;3.538;2023-02-12T08:12:17;57.72;;;26.92;;
32705;SDS011;19094;50.972;3.538;2023-02-12T08:14:43;56.53;;;27.85;;
32705;SDS011;19094;50.972;3.538;2023-02-12T08:17:08;57.63;;;28.23;;
32705;SDS011;19094;50.972;3.538;2023-02-12T08:19:35;55.63;;;28.30;;
32705;SDS011;19094;50.972;3.538;2023-02-12T08:22:01;63.92;;;28.52;;
32705;SDS011;19094;50.972;3.538;2023-02-12T08:24:27;57.75;;;28.38;;
32705;SDS011;19094;50.972;3.538;2023-02-12T08:26:53;59.33;;;28.48;;
32705;SDS011;19094;50.972;3.538;2023-02-12T08:29:24;57.85;;;29.45;;
32705;SDS011;19094;50.972;3.538;2023-02-12T08:31:58;56.95;;;29.00;;
32705;SDS011;19094;50.972;3.538;2023-02-12T08:34:29;62.03;;;29.98;;
32705;SDS011;19094;50.972;3.538;2023-02-12T08:36:57;64.50;;;29.58;;
32705;SDS011;19094;50.972;3.538;2023-02-12T08:39:24;59.03;;;30.38;;
32705;SDS011;19094;50.972;3.538;2023-02-12T08:41:54;61.25;;;30.15;;
32705;SDS011;19094;50.972;3.538;2023-02-12T08:44:21;53.90;;;27.20;;
32705;SDS011;19094;50.972;3.538;2023-02-12T08:46:48;67.90;;;29.00;;
32705;SDS011;19094;50.972;3.538;2023-02-12T08:49:16;65.30;;;28.70;;
32705;SDS011;19094;50.972;3.538;2023-02-12T08:51:46;59.30;;;27.20;;
32705;SDS011;19094;50.972;3.538;2023-02-12T08:54:14;59.03;;;29.40;;
32705;SDS011;19094;50.972;3.538;2023-02-12T08:56:42;54.28;;;26.50;;
32705;SDS011;19094;50.972;3.538;2023-02-12T08:59:09;53.45;;;27.50;;
32705;SDS011;19094;50.972;3.538;2023-02-12T09:01:36;56.35;;;27.98;;
32705;SDS011;19094;50.972;3.538;2023-02-12T09:04:18;52.33;;;27.30;;
32705;SDS011;19094;50.972;3.538;2023-02-12T09:06:46;53.03;;;27.48;;
32705;SDS011;19094;50.972;3.538;2023-02-12T09:09:12;50.92;;;26.77;;
32705;SDS011;19094;50.972;3.538;2023-02-12T09:11:39;53.33;;;27.80;;
32705;SDS011;19094;50.972;3.538;2023-02-12T09:14:05;64.90;;;28.20;;
32705;SDS011;19094;50.972;3.538;2023-02-12T09:16:34;70.30;;;28.30;;
32705;SDS011;19094;50.972;3.538;2023-02-12T09:19:01;66.03;;;28.70;;
32705;SDS011;19094;50.972;3.538;2023-02-12T09:21:27;54.88;;;26.80;;
32705;SDS011;19094;50.972;3.538;2023-02-12T09:23:52;58.90;;;28.55;;
32705;SDS011;19094;50.972;3.538;2023-02-12T09:26:20;53.53;;;26.83;;
32705;SDS011;19094;50.972;3.538;2023-02-12T09:28:47;52.15;;;27.00;;
32705;SDS011;19094;50.972;3.538;2023-02-12T09:31:15;57.63;;;26.27;;
32705;SDS011;19094;50.972;3.538;2023-02-12T09:33:45;58.38;;;27.55;;
32705;SDS011;19094;50.972;3.538;2023-02-12T09:36:12;57.53;;;26.80;;
32705;SDS011;19094;50.972;3.538;2023-02-12T09:38:39;51.95;;;26.23;;
32705;SDS011;19094;50.972;3.538;2023-02-12T09:41:10;51.72;;;25.50;;
32705;SDS011;19094;50.972;3.538;2023-02-12T09:44:14;45.80;;;23.33;;
32705;SDS011;19094;50.972;3.538;2023-02-12T09:47:16;48.72;;;24.15;;
32705;SDS011;19094;50.972;3.538;2023-02-12T09:52:38;56.72;;;24.75;;
32705;SDS011;19094;50.972;3.538;2023-02-12T09:55:04;46.20;;;23.48;;
32705;SDS011;19094;50.972;3.538;2023-02-12T09:57:32;51.50;;;24.83;;
32705;SDS011;19094;50.972;3.538;2023-02-12T10:00:04;54.10;;;25.48;;
32705;SDS011;19094;50.972;3.538;2023-02-12T10:02:33;50.38;;;22.92;;
32705;SDS011;19094;50.972;3.538;2023-02-12T10:05:00;67.90;;;24.90;;
32705;SDS011;19094;50.972;3.538;2023-02-12T10:12:50;65.20;;;26.70;;
32705;SDS011;19094;50.972;3.538;2023-02-12T10:15:37;56.28;;;20.98;;
32705;SDS011;19094;50.972;3.538;2023-02-12T10:18:37;56.40;;;22.08;;
32705;SDS011;19094;50.972;3.538;2023-02-12T10:26:40;53.97;;;21.67;;
32705;SDS011;19094;50.972;3.538;2023-02-12T10:29:27;50.28;;;22.30;;
32705;SDS011;19094;50.972;3.538;2023-02-12T10:32:09;47.60;;;21.13;;
32705;SDS011;19094;50.972;3.538;2023-02-12T10:35:10;49.42;;;21.85;;
32705;SDS011;19094;50.972;3.538;2023-02-12T10:37:47;35.97;;;20.23;;
32705;SDS011;19094;50.972;3.538;2023-02-12T10:40:22;40.95;;;20.88;;
32705;SDS011;19094;50.972;3.538;2023-02-12T10:42:54;39.58;;;20.88;;
32705;SDS011;19094;50.972;3.538;2023-02-12T10:45:37;43.78;;;19.17;;
32705;SDS011;19094;50.972;3.538;2023-02-12T10:53:12;35.60;;;19.50;;
32705;SDS011;19094;50.972;3.538;2023-02-12T10:58:57;40.03;;;19.83;;
32705;SDS011;19094;50.972;3.538;2023-02-12T11:03:54;41.97;;;18.42;;
32705;SDS011;19094;50.972;3.538;2023-02-12T11:06:23;34.08;;;17.02;;
32705;SDS011;19094;50.972;3.538;2023-02-12T11:08:50;34.25;;;18.17;;
32705;SDS011;19094;50.972;3.538;2023-02-12T11:11:21;43.47;;;18.50;;
32705;SDS011;19094;50.972;3.538;2023-02-12T11:13:55;41.50;;;15.88;;
32705;SDS011;19094;50.972;3.538;2023-02-12T11:19:05;37.53;;;19.30;;
32705;SDS011;19094;50.972;3.538;2023-02-12T11:21:33;36.80;;;17.73;;
32705;SDS011;19094;50.972;3.538;2023-02-12T11:26:50;48.60;;;20.23;;
32705;SDS011;19094;50.972;3.538;2023-02-12T11:29:17;34.17;;;18.10;;
32705;SDS011;19094;50.972;3.538;2023-02-12T11:32:00;36.97;;;17.42;;
32705;SDS011;19094;50.972;3.538;2023-02-12T11:34:27;36.03;;;17.02;;
32705;SDS011;19094;50.972;3.538;2023-02-12T11:36:54;34.30;;;17.80;;
32705;SDS011;19094;50.972;3.538;2023-02-12T11:39:28;33.78;;;17.38;;
32705;SDS011;19094;50.972;3.538;2023-02-12T11:44:47;36.80;;;17.05;;
32705;SDS011;19094;50.972;3.538;2023-02-12T11:47:24;38.40;;;18.83;;
32705;SDS011;19094;50.972;3.538;2023-02-12T11:52:34;45.78;;;19.58;;
32705;SDS011;19094;50.972;3.538;2023-02-12T11:55:04;50.33;;;19.73;;
32705;SDS011;19094;50.972;3.538;2023-02-12T12:02:48;33.47;;;18.10;;
32705;SDS011;19094;50.972;3.538;2023-02-12T12:05:30;32.92;;;17.45;;
32705;SDS011;19094;50.972;3.538;2023-02-12T12:08:02;36.45;;;17.98;;
32705;SDS011;19094;50.972;3.538;2023-02-12T12:10:39;42.42;;;18.83;;
32705;SDS011;19094;50.972;3.538;2023-02-12T12:13:32;43.13;;;19.02;;
32705;SDS011;19094;50.972;3.538;2023-02-12T12:16:08;42.80;;;18.77;;
32705;SDS011;19094;50.972;3.538;2023-02-12T12:18:58;34.47;;;16.97;;
32705;SDS011;19094;50.972;3.538;2023-02-12T12:22:12;34.38;;;17.38;;
32705;SDS011;19094;50.972;3.538;2023-02-12T12:27:40;37.53;;;18.15;;
32705;SDS011;19094;50.972;3.538;2023-02-12T12:33:30;38.65;;;18.55;;
32705;SDS011;19094;50.972;3.538;2023-02-12T12:35:58;37.70;;;19.05;;
32705;SDS011;19094;50.972;3.538;2023-02-12T12:41:17;60.90;;;24.08;;
32705;SDS011;19094;50.972;3.538;2023-02-12T13:08:09;42.45;;;18.17;;
32705;SDS011;19094;50.972;3.538;2023-02-12T13:14:00;38.40;;;19.10;;
32705;SDS011;19094;50.972;3.538;2023-02-12T13:16:22;37.60;;;18.27;;
32705;SDS011;19094;50.972;3.538;2023-02-12T13:24:48;36.67;;;18.30;;
32705;SDS011;19094;50.972;3.538;2023-02-12T13:27:23;39.10;;;19.08;;
32705;SDS011;19094;50.972;3.538;2023-02-12T13:35:28;38.28;;;18.92;;
32705;SDS011;19094;50.972;3.538;2023-02-12T13:37:57;35.53;;;18.48;;
32705;SDS011;19094;50.972;3.538;2023-02-12T13:40:28;39.95;;;19.40;;
32705;SDS011;19094;50.972;3.538;2023-02-12T13:42:57;33.83;;;17.55;;
32705;SDS011;19094;50.972;3.538;2023-02-12T13:45:51;48.08;;;19.65;;
32705;SDS011;19094;50.972;3.538;2023-02-12T13:48:34;37.25;;;18.90;;
32705;SDS011;19094;50.972;3.538;2023-02-12T13:56:39;40.58;;;18.45;;
32705;SDS011;19094;50.972;3.538;2023-02-12T14:05:14;48.67;;;21.27;;
32705;SDS011;19094;50.972;3.538;2023-02-12T14:07:52;46.42;;;21.30;;
32705;SDS011;19094;50.972;3.538;2023-02-12T14:15:52;50.03;;;23.48;;
32705;SDS011;19094;50.972;3.538;2023-02-12T14:18:27;49.30;;;22.15;;
32705;SDS011;19094;50.972;3.538;2023-02-12T14:23:35;39.75;;;19.60;;
32705;SDS011;19094;50.972;3.538;2023-02-12T14:26:03;44.60;;;21.30;;
32705;SDS011;19094;50.972;3.538;2023-02-12T14:33:47;41.30;;;19.42;;
32705;SDS011;19094;50.972;3.538;2023-02-12T14:36:16;44.03;;;19.42;;
32705;SDS011;19094;50.972;3.538;2023-02-12T14:38:59;35.15;;;17.98;;
32705;SDS011;19094;50.972;3.538;2023-02-12T14:44:58;39.38;;;17.52;;
32705;SDS011;19094;50.972;3.538;2023-02-12T14:46:55;39.25;;;19.42;;
32705;SDS011;19094;50.972;3.538;2023-02-12T14:49:23;46.25;;;19.08;;
32705;SDS011;19094;50.972;3.538;2023-02-12T14:52:13;40.72;;;18.50;;
32705;SDS011;19094;50.972;3.538;2023-02-12T14:54:44;37.05;;;17.35;;
32705;SDS011;19094;50.972;3.538;2023-02-12T14:59:51;37.15;;;17.42;;
32705;SDS011;19094;50.972;3.538;2023-02-12T15:02:28;40.75;;;18.77;;
32705;SDS011;19094;50.972;3.538;2023-02-12T15:05:12;41.90;;;20.15;;
32705;SDS011;19094;50.972;3.538;2023-02-12T15:10:26;40.17;;;17.80;;
32705;SDS011;19094;50.972;3.538;2023-02-12T15:15:44;36.50;;;17.23;;
32705;SDS011;19094;50.972;3.538;2023-02-12T15:18:19;39.13;;;18.50;;
32705;SDS011;19094;50.972;3.538;2023-02-12T15:23:44;42.88;;;17.90;;
32705;SDS011;19094;50.972;3.538;2023-02-12T15:26:19;35.22;;;16.25;;
32705;SDS011;19094;50.972;3.538;2023-02-12T15:28:47;39.17;;;17.30;;
32705;SDS011;19094;50.972;3.538;2023-02-12T15:31:22;36.70;;;17.45;;
32705;SDS011;19094;50.972;3.538;2023-02-12T15:33:53;36.15;;;17.05;;
32705;SDS011;19094;50.972;3.538;2023-02-12T15:36:25;38.75;;;17.92;;
32705;SDS011;19094;50.972;3.538;2023-02-12T15:38:53;41.58;;;18.27;;
32705;SDS011;19094;50.972;3.538;2023-02-12T15:43:56;39.08;;;17.92;;
32705;SDS011;19094;50.972;3.538;2023-02-12T15:46:22;39.60;;;17.90;;
32705;SDS011;19094;50.972;3.538;2023-02-12T15:48:48;40.97;;;19.65;;
32705;SDS011;19094;50.972;3.538;2023-02-12T15:53:55;43.47;;;18.98;;
32705;SDS011;19094;50.972;3.538;2023-02-12T15:56:23;40.40;;;19.20;;
32705;SDS011;19094;50.972;3.538;2023-02-12T15:58:53;40.00;;;19.25;;
32705;SDS011;19094;50.972;3.538;2023-02-12T16:03:52;39.13;;;18.80;;
32705;SDS011;19094;50.972;3.538;2023-02-12T16:06:21;39.13;;;18.92;;
32705;SDS011;19094;50.972;3.538;2023-02-12T16:08:58;39.70;;;18.20;;
32705;SDS011;19094;50.972;3.538;2023-02-12T16:11:28;39.20;;;18.52;;
32705;SDS011;19094;50.972;3.538;2023-02-12T16:14:03;43.42;;;20.38;;
32705;SDS011;19094;50.972;3.538;2023-02-12T16:16:45;39.60;;;19.23;;
32705;SDS011;19094;50.972;3.538;2023-02-12T16:24:36;41.90;;;20.08;;
32705;SDS011;19094;50.972;3.538;2023-02-12T16:27:17;46.53;;;21.13;;
32705;SDS011;19094;50.972;3.538;2023-02-12T16:29:49;41.80;;;20.83;;
32705;SDS011;19094;50.972;3.538;2023-02-12T16:42:58;47.75;;;21.42;;
32705;SDS011;19094;50.972;3.538;2023-02-12T16:47:50;45.55;;;23.02;;
32705;SDS011;19094;50.972;3.538;2023-02-12T16:50:28;44.13;;;21.95;;
32705;SDS011;19094;50.972;3.538;2023-02-12T16:52:58;44.88;;;21.85;;
32705;SDS011;19094;50.972;3.538;2023-02-12T16:55:25;39.25;;;18.88;;
32705;SDS011;19094;50.972;3.538;2023-02-12T16:57:51;43.00;;;19.77;;
32705;SDS011;19094;50.972;3.538;2023-02-12T17:00:17;43.28;;;19.10;;
32705;SDS011;19094;50.972;3.538;2023-02-12T17:02:43;44.88;;;20.42;;
32705;SDS011;19094;50.972;3.538;2023-02-12T17:05:11;40.03;;;19.23;;
32705;SDS011;19094;50.972;3.538;2023-02-12T17:07:41;38.63;;;18.95;;
32705;SDS011;19094;50.972;3.538;2023-02-12T17:10:11;36.50;;;17.65;;
32705;SDS011;19094;50.972;3.538;2023-02-12T17:12:47;40.13;;;17.75;;
32705;SDS011;19094;50.972;3.538;2023-02-12T17:15:19;36.65;;;17.50;;
32705;SDS011;19094;50.972;3.538;2023-02-12T17:17:51;39.22;;;19.88;;
32705;SDS011;19094;50.972;3.538;2023-02-12T17:20:16;45.40;;;21.92;;
32705;SDS011;19094;50.972;3.538;2023-02-12T17:22:45;56.53;;;28.83;;
32705;SDS011;19094;50.972;3.538;2023-02-12T17:25:14;42.03;;;20.45;;
32705;SDS011;19094;50.972;3.538;2023-02-12T17:27:40;39.75;;;18.65;;
32705;SDS011;19094;50.972;3.538;2023-02-12T17:30:06;40.75;;;20.05;;
32705;SDS011;19094;50.972;3.538;2023-02-12T17:32:33;50.45;;;23.17;;
32705;SDS011;19094;50.972;3.538;2023-02-12T17:34:58;46.00;;;20.83;;
32705;SDS011;19094;50.972;3.538;2023-02-12T17:37:24;43.85;;;20.75;;
32705;SDS011;19094;50.972;3.538;2023-02-12T17:39:50;42.90;;;19.45;;
32705;SDS011;19094;50.972;3.538;2023-02-12T17:42:16;48.83;;;20.65;;
32705;SDS011;19094;50.972;3.538;2023-02-12T17:44:41;40.05;;;18.42;;
32705;SDS011;19094;50.972;3.538;2023-02-12T17:47:07;39.08;;;18.40;;